createdAt,value
2023-04-08T00:01:22.501Z,101602.46
2023-04-08T00:03:50.990Z,101599.10
2023-04-08T00:06:19.493Z,101597.55
2023-04-08T00:08:47.886Z,101599.60
2023-04-08T00:11:16.465Z,101596.05
2023-04-08T00:13:44.931Z,101600.67
2023-04-08T00:16:13.620Z,101601.95
2023-04-08T00:18:43.036Z,101601.46
2023-04-08T00:21:11.723Z,101600.95
2023-04-08T00:23:40.616Z,101602.74
2023-04-08T00:26:08.806Z,101604.58
2023-04-08T00:28:38.397Z,101609.88
2023-04-08T00:31:07.078Z,101607.40
2023-04-08T00:33:35.902Z,101610.68
2023-04-08T00:36:04.838Z,101609.11
2023-04-08T00:38:33.708Z,101612.49
2023-04-08T00:41:02.007Z,101611.71
2023-04-08T00:43:30.569Z,101617.33
2023-04-08T00:45:59.487Z,101615.32
2023-04-08T00:48:28.254Z,101617.10
2023-04-08T00:50:56.838Z,101616.52
2023-04-08T00:53:25.887Z,101618.23
2023-04-08T00:55:54.424Z,101615.11
2023-04-08T00:58:23.196Z,101613.60
2023-04-08T01:00:58.869Z,101616.06
2023-04-08T01:04:16.968Z,101617.29
2023-04-08T01:06:54.278Z,101619.50
2023-04-08T01:09:28.288Z,101620.96
2023-04-08T01:11:57.980Z,101618.46
2023-04-08T01:14:28.434Z,101619.99
2023-04-08T01:16:59.380Z,101623.91
2023-04-08T01:19:33.392Z,101626.63
2023-04-08T01:22:13.341Z,101624.71
2023-04-08T01:24:44.393Z,101625.92
2023-04-08T01:27:14.615Z,101622.92
2023-04-08T01:29:44.535Z,101626.11
2023-04-08T01:32:14.753Z,101627.98
2023-04-08T01:34:45.500Z,101628.71
2023-04-08T01:37:15.837Z,101628.98
2023-04-08T01:39:45.954Z,101628.09
2023-04-08T01:42:14.560Z,101632.85
2023-04-08T01:44:43.600Z,101632.77
2023-04-08T01:47:14.352Z,101634.94
2023-04-08T01:49:44.507Z,101633.80
2023-04-08T01:52:14.943Z,101633.29
2023-04-08T01:54:43.424Z,101637.13
2023-04-08T01:57:17.846Z,101637.08
2023-04-08T01:59:51.652Z,101635.17
2023-04-08T02:02:27.410Z,101629.60
2023-04-08T02:04:56.815Z,101630.44
2023-04-08T02:07:25.300Z,101631.08
2023-04-08T02:09:53.464Z,101631.46
2023-04-08T02:12:21.866Z,101629.42
2023-04-08T02:14:50.052Z,101629.62
2023-04-08T02:17:25.650Z,101635.36
2023-04-08T02:20:11.247Z,101633.02
2023-04-08T02:22:39.962Z,101632.55
2023-04-08T02:25:17.994Z,101633.89
2023-04-08T02:27:49.452Z,101636.30
2023-04-08T02:30:19.142Z,101636.36
2023-04-08T02:32:50.874Z,101639.20
2023-04-08T02:35:20.555Z,101642.45
2023-04-08T02:37:49.311Z,101641.05
2023-04-08T02:40:25.536Z,101640.81
2023-04-08T02:42:54.669Z,101641.94
2023-04-08T02:45:27.654Z,101644.14
2023-04-08T02:47:56.399Z,101642.97
2023-04-08T02:50:25.140Z,101647.31
2023-04-08T02:52:53.744Z,101646.48
2023-04-08T02:55:22.216Z,101646.00
2023-04-08T02:57:50.705Z,101645.61
2023-04-08T03:00:19.214Z,101650.74
2023-04-08T03:02:47.911Z,101648.27
2023-04-08T03:05:17.101Z,101652.71
2023-04-08T03:07:45.674Z,101650.91
2023-04-08T03:10:14.059Z,101657.79
2023-04-08T03:12:42.447Z,101656.61
2023-04-08T03:15:11.035Z,101656.45
2023-04-08T03:17:39.548Z,101657.58
2023-04-08T03:20:09.400Z,101660.41
2023-04-08T03:22:38.135Z,101659.46
2023-04-08T03:25:07.039Z,101662.19
2023-04-08T03:27:35.409Z,101662.25
2023-04-08T03:30:04.147Z,101671.18
2023-04-08T03:32:33.311Z,101671.42
2023-04-08T03:35:01.795Z,101673.30
2023-04-08T03:37:30.628Z,101674.44
2023-04-08T03:39:58.971Z,101676.75
2023-04-08T03:42:27.562Z,101680.27
2023-04-08T03:44:56.254Z,101679.55
2023-04-08T03:47:25.066Z,101676.82
2023-04-08T03:49:54.966Z,101679.80
2023-04-08T03:52:25.073Z,101676.55
2023-04-08T03:54:53.382Z,101680.16
2023-04-08T03:57:21.665Z,101679.05
2023-04-08T03:59:49.833Z,101683.62
2023-04-08T04:02:18.053Z,101678.98
2023-04-08T04:04:46.871Z,101682.27
2023-04-08T04:07:15.295Z,101682.33
2023-04-08T04:09:43.571Z,101682.15
2023-04-08T04:12:12.161Z,101682.52
2023-04-08T04:14:40.954Z,101682.13
2023-04-08T04:17:09.351Z,101685.50
2023-04-08T04:19:38.031Z,101684.75
2023-04-08T04:22:06.417Z,101683.13
2023-04-08T04:24:34.907Z,101680.41
2023-04-08T04:27:03.393Z,101683.48
2023-04-08T04:29:33.225Z,101687.47
2023-04-08T04:32:01.502Z,101690.58
2023-04-08T04:34:29.976Z,101689.05
2023-04-08T04:36:58.357Z,101692.67
2023-04-08T04:39:27.568Z,101694.85
2023-04-08T04:41:55.850Z,101697.93
2023-04-08T04:44:24.353Z,101699.52
2023-04-08T04:46:53.355Z,101701.89
2023-04-08T04:49:22.226Z,101705.48
2023-04-08T04:51:50.711Z,101705.23
2023-04-08T04:54:19.096Z,101705.23
2023-04-08T04:56:47.481Z,101709.44
2023-04-08T04:59:15.971Z,101715.36
2023-04-08T05:01:44.437Z,101723.44
2023-04-08T05:04:12.842Z,101726.17
2023-04-08T05:06:41.230Z,101726.16
2023-04-08T05:09:09.417Z,101728.96
2023-04-08T05:11:37.711Z,101730.17
2023-04-08T05:14:07.305Z,101735.95
2023-04-08T05:16:36.251Z,101737.64
2023-04-08T05:19:05.003Z,101742.16
2023-04-08T05:21:33.381Z,101741.52
2023-04-08T05:24:01.781Z,101738.23
2023-04-08T05:26:29.952Z,101737.85
2023-04-08T05:28:58.467Z,101732.35
2023-04-08T05:31:27.313Z,101734.64
2023-04-08T05:33:55.816Z,101737.93
2023-04-08T05:36:24.098Z,101739.38
2023-04-08T05:38:52.551Z,101737.58
2023-04-08T05:41:21.701Z,101737.52
2023-04-08T05:43:49.976Z,101737.42
2023-04-08T05:46:18.996Z,101742.08
2023-04-08T05:48:48.040Z,101741.08
2023-04-08T05:51:18.426Z,101741.63
2023-04-08T05:53:47.293Z,101744.85
2023-04-08T05:56:15.680Z,101743.52
2023-04-08T05:58:44.063Z,101744.79
2023-04-08T06:01:12.852Z,101748.28
2023-04-08T06:03:41.419Z,101752.63
2023-04-08T06:06:11.927Z,101753.05
2023-04-08T06:08:41.244Z,101757.00
2023-04-08T06:11:09.555Z,101756.48
2023-04-08T06:13:38.560Z,101760.08
2023-04-08T06:16:15.591Z,101757.02
2023-04-08T06:18:44.328Z,101758.74
2023-04-08T06:21:13.123Z,101763.00
2023-04-08T06:23:42.036Z,101767.21
2023-04-08T06:26:11.037Z,101766.04
2023-04-08T06:28:39.502Z,101771.48
2023-04-08T06:31:07.788Z,101773.95
2023-04-08T06:33:36.069Z,101774.19
2023-04-08T06:36:06.017Z,101780.02
2023-04-08T06:38:34.584Z,101782.21
2023-04-08T06:41:06.962Z,101785.80
2023-04-08T06:43:38.024Z,101783.23
2023-04-08T06:46:07.407Z,101782.29
2023-04-08T06:48:37.905Z,101782.16
2023-04-08T06:51:08.033Z,101787.22
2023-04-08T06:53:36.557Z,101786.64
2023-04-08T06:56:05.348Z,101787.65
2023-04-08T06:58:33.467Z,101787.61
2023-04-08T07:01:03.355Z,101791.70
2023-04-08T07:03:31.994Z,101791.38
2023-04-08T07:06:00.626Z,101790.08
2023-04-08T07:08:29.119Z,101792.89
2023-04-08T07:10:57.599Z,101794.02
2023-04-08T07:13:26.190Z,101791.24
2023-04-08T07:15:54.764Z,101792.46
2023-04-08T07:18:23.958Z,101790.23
2023-04-08T07:20:54.123Z,101790.69
2023-04-08T07:23:23.108Z,101788.98
2023-04-08T07:25:51.700Z,101789.56
2023-04-08T07:28:22.632Z,101792.30
2023-04-08T07:30:50.938Z,101791.23
2023-04-08T07:33:20.123Z,101788.45
2023-04-08T07:35:48.643Z,101791.95
2023-04-08T07:38:17.194Z,101788.27
2023-04-08T07:40:45.380Z,101790.32
2023-04-08T07:43:13.761Z,101788.48
2023-04-08T07:45:42.860Z,101791.15
2023-04-08T07:48:11.396Z,101788.10
2023-04-08T07:51:07.980Z,101790.42
2023-04-08T07:53:28.787Z,101788.38
2023-04-08T07:55:58.604Z,101785.63
2023-04-08T07:58:27.459Z,101787.89
2023-04-08T08:00:57.625Z,101789.15
2023-04-08T08:03:26.110Z,101789.65
2023-04-08T08:05:54.700Z,101785.67
2023-04-08T08:08:23.083Z,101783.69
2023-04-08T08:10:51.273Z,101780.12
2023-04-08T08:13:22.415Z,101784.06
2023-04-08T08:15:54.128Z,101782.23
2023-04-08T08:18:22.563Z,101784.49
2023-04-08T08:20:51.070Z,101783.25
2023-04-08T08:23:19.331Z,101782.84
2023-04-08T08:25:47.814Z,101785.11
2023-04-08T08:28:15.994Z,101779.63
2023-04-08T08:30:44.279Z,101779.00
2023-04-08T08:33:12.867Z,101778.55
2023-04-08T08:35:41.094Z,101781.39
2023-04-08T08:38:09.532Z,101782.49
2023-04-08T08:40:37.919Z,101784.09
2023-04-08T08:43:06.302Z,101783.80
2023-04-08T08:45:41.044Z,101785.63
2023-04-08T08:48:09.845Z,101782.79
2023-04-08T08:50:38.336Z,101781.54
2023-04-08T08:53:06.798Z,101784.21
2023-04-08T08:56:00.306Z,101782.17
2023-04-08T08:58:28.059Z,101784.42
2023-04-08T09:00:56.518Z,101783.86
2023-04-08T09:03:29.631Z,101789.61
2023-04-08T09:05:59.546Z,101789.98
2023-04-08T09:08:34.680Z,101791.06
2023-04-08T09:11:15.916Z,101791.71
2023-04-08T09:13:45.575Z,101787.05
2023-04-08T09:16:20.336Z,101786.81
2023-04-08T09:18:50.006Z,101787.95
2023-04-08T09:21:22.714Z,101790.31
2023-04-08T09:23:53.190Z,101793.27
2023-04-08T09:26:24.375Z,101792.23
2023-04-08T09:29:14.287Z,101792.23
2023-04-08T09:31:59.202Z,101790.33
2023-04-08T09:34:29.803Z,101790.05
2023-04-08T09:36:58.232Z,101786.90
2023-04-08T09:39:26.605Z,101788.27
2023-04-08T09:42:01.540Z,101788.56
2023-04-08T09:44:33.387Z,101790.59
2023-04-08T09:47:13.048Z,101790.69
2023-04-08T09:49:50.434Z,101794.40
2023-04-08T09:52:42.766Z,101793.80
2023-04-08T09:55:14.457Z,101796.96
2023-04-08T09:57:59.694Z,101791.72
2023-04-08T10:00:32.679Z,101791.11
2023-04-08T10:03:19.225Z,101791.68
2023-04-08T10:05:49.918Z,101789.35
2023-04-08T10:08:18.919Z,101789.88
2023-04-08T10:10:48.140Z,101795.84
2023-04-08T10:13:17.092Z,101795.55
2023-04-08T10:15:47.818Z,101791.48
2023-04-08T10:18:19.419Z,101790.90
2023-04-08T10:20:49.476Z,101780.95
2023-04-08T10:23:18.834Z,101784.32
2023-04-08T10:25:48.707Z,101783.04
2023-04-08T10:28:18.505Z,101783.44
2023-04-08T10:30:51.575Z,101784.20
2023-04-08T10:33:31.315Z,101780.95
2023-04-08T10:36:12.132Z,101782.91
2023-04-08T10:38:44.432Z,101779.45
2023-04-08T10:41:21.817Z,101777.71
2023-04-08T10:43:51.111Z,101778.43
2023-04-08T10:46:20.063Z,101775.58
2023-04-08T10:49:01.670Z,101774.79
2023-04-08T10:51:35.243Z,101772.17
2023-04-08T10:54:08.618Z,101775.93
2023-04-08T10:56:43.982Z,101771.83
2023-04-08T10:59:13.994Z,101771.23
2023-04-08T11:01:45.291Z,101769.87
2023-04-08T11:04:23.766Z,101766.55
2023-04-08T11:06:52.291Z,101766.02
2023-04-08T11:09:21.256Z,101768.55
2023-04-08T11:11:49.747Z,101766.81
2023-04-08T11:14:22.125Z,101770.95
2023-04-08T11:16:52.204Z,101766.27
2023-04-08T11:19:20.825Z,101769.34
2023-04-08T11:21:51.562Z,101766.23
2023-04-08T11:24:22.461Z,101767.10
2023-04-08T11:26:51.330Z,101762.36
2023-04-08T11:29:21.391Z,101763.98
2023-04-08T11:31:51.557Z,101765.35
2023-04-08T11:34:24.795Z,101763.42
2023-04-08T11:36:53.462Z,101759.55
2023-04-08T11:39:24.900Z,101760.91
2023-04-08T11:41:53.476Z,101761.95
2023-04-08T11:44:33.432Z,101760.39
2023-04-08T11:47:02.837Z,101760.98
2023-04-08T11:49:44.836Z,101758.27
2023-04-08T11:52:13.985Z,101753.00
2023-04-08T11:54:43.365Z,101755.34
2023-04-08T11:57:11.928Z,101755.05
2023-04-08T11:59:40.418Z,101751.85
2023-04-08T12:02:09.450Z,101747.95
2023-04-08T12:04:38.271Z,101745.80
2023-04-08T12:07:06.692Z,101744.52
2023-04-08T12:09:35.093Z,101742.49
2023-04-08T12:12:03.568Z,101738.58
2023-04-08T12:14:32.359Z,101739.06
2023-04-08T12:17:01.360Z,101737.63
2023-04-08T12:19:31.199Z,101736.13
2023-04-08T12:22:00.788Z,101735.10
2023-04-08T12:24:29.173Z,101734.66
2023-04-08T12:26:57.965Z,101733.06
2023-04-08T12:29:26.145Z,101729.91
2023-04-08T12:31:54.735Z,101735.19
2023-04-08T12:34:23.239Z,101736.11
2023-04-08T12:36:51.610Z,101737.30
2023-04-08T12:39:19.891Z,101730.98
2023-04-08T12:41:48.482Z,101726.52
2023-04-08T12:44:17.377Z,101728.09
2023-04-08T12:46:46.574Z,101727.92
2023-04-08T12:49:15.174Z,101731.92
2023-04-08T12:51:43.660Z,101728.25
2023-04-08T12:54:12.674Z,101730.95
2023-04-08T12:56:43.394Z,101729.16
2023-04-08T12:59:11.882Z,101729.13
2023-04-08T13:01:40.196Z,101728.42
2023-04-08T13:04:09.014Z,101726.08
2023-04-08T13:06:37.344Z,101721.59
2023-04-08T13:09:05.627Z,101721.09
2023-04-08T13:11:34.367Z,101719.86
2023-04-08T13:14:02.833Z,101715.73
2023-04-08T13:16:31.319Z,101713.91
2023-04-08T13:18:59.883Z,101715.05
2023-04-08T13:21:28.365Z,101714.31
2023-04-08T13:23:56.657Z,101711.36
2023-04-08T13:26:25.138Z,101707.41
2023-04-08T13:28:57.198Z,101706.02
2023-04-08T13:31:26.886Z,101703.13
2023-04-08T13:33:57.921Z,101701.70
2023-04-08T13:36:29.069Z,101696.14
2023-04-08T13:38:57.902Z,101699.61
2023-04-08T13:41:28.334Z,101702.39
2023-04-08T13:43:57.137Z,101700.34
2023-04-08T13:46:26.145Z,101699.34
2023-04-08T13:48:56.251Z,101696.73
2023-04-08T13:51:24.849Z,101699.36
2023-04-08T13:53:53.327Z,101699.89
2023-04-08T13:56:21.707Z,101696.21
2023-04-08T13:58:56.824Z,101696.38
2023-04-08T14:01:25.999Z,101694.45
2023-04-08T14:03:54.333Z,101693.89
2023-04-08T14:06:23.337Z,101688.69
2023-04-08T14:08:51.872Z,101693.92
2023-04-08T14:11:21.531Z,101696.38
2023-04-08T14:13:50.032Z,101692.52
2023-04-08T14:16:18.988Z,101693.45
2023-04-08T14:18:47.502Z,101692.63
2023-04-08T14:21:18.368Z,101692.25
2023-04-08T14:23:46.942Z,101690.80
2023-04-08T14:26:16.032Z,101686.58
2023-04-08T14:28:44.524Z,101688.46
2023-04-08T14:31:13.253Z,101683.20
2023-04-08T14:33:42.838Z,101683.29
2023-04-08T14:36:12.411Z,101685.20
2023-04-08T14:38:41.028Z,101689.33
2023-04-08T14:41:09.413Z,101682.15
2023-04-08T14:43:37.740Z,101683.48
2023-04-08T14:46:06.393Z,101678.77
2023-04-08T14:48:34.975Z,101678.05
2023-04-08T14:51:04.506Z,101678.21
2023-04-08T14:53:33.897Z,101675.23
2023-04-08T14:56:02.283Z,101673.89
2023-04-08T14:58:30.666Z,101673.89
2023-04-08T15:00:58.946Z,101675.54
2023-04-08T15:03:27.779Z,101677.94
2023-04-08T15:05:59.837Z,101677.95
2023-04-08T15:08:28.709Z,101681.23
2023-04-08T15:10:57.289Z,101678.14
2023-04-08T15:13:25.582Z,101678.13
2023-04-08T15:15:54.909Z,101677.77
2023-04-08T15:18:23.979Z,101678.33
2023-04-08T15:20:52.873Z,101679.38
2023-04-08T15:23:22.294Z,101680.95
2023-04-08T15:25:51.182Z,101680.33
2023-04-08T15:28:19.664Z,101681.06
2023-04-08T15:30:49.595Z,101683.81
2023-04-08T15:33:17.973Z,101684.34
2023-04-08T15:35:49.820Z,101680.21
2023-04-08T15:38:18.666Z,101682.05
2023-04-08T15:40:48.213Z,101682.80
2023-04-08T15:43:16.932Z,101684.00
2023-04-08T15:45:46.955Z,101685.65
2023-04-08T15:48:15.980Z,101686.48
2023-04-08T15:50:44.597Z,101686.10
2023-04-08T15:53:13.227Z,101690.77
2023-04-08T15:55:42.188Z,101690.30
2023-04-08T15:58:10.618Z,101686.73
2023-04-08T16:00:39.105Z,101688.33
2023-04-08T16:03:09.197Z,101688.17
2023-04-08T16:05:39.878Z,101689.83
2023-04-08T16:08:08.451Z,101689.62
2023-04-08T16:10:36.829Z,101693.73
2023-04-08T16:13:05.423Z,101690.14
2023-04-08T16:15:34.828Z,101695.70
2023-04-08T16:18:04.762Z,101699.02
2023-04-08T16:20:33.441Z,101702.83
2023-04-08T16:23:01.831Z,101705.55
2023-04-08T16:25:30.516Z,101710.59
2023-04-08T16:27:59.214Z,101710.63
2023-04-08T16:30:27.927Z,101712.97
2023-04-08T16:32:56.440Z,101713.35
2023-04-08T16:35:24.975Z,101714.52
2023-04-08T16:37:53.265Z,101718.73
2023-04-08T16:40:22.274Z,101719.95
2023-04-08T16:42:51.374Z,101724.89
2023-04-08T16:45:19.767Z,101728.96
2023-04-08T16:47:48.580Z,101729.52
2023-04-08T16:50:17.437Z,101733.38
2023-04-08T16:52:49.626Z,101736.63
2023-04-08T16:55:19.480Z,101735.87
2023-04-08T16:57:48.011Z,101739.57
2023-04-08T17:00:18.613Z,101744.04
2023-04-08T17:02:49.372Z,101746.80
2023-04-08T17:05:18.179Z,101753.44
2023-04-08T17:07:46.775Z,101754.87
2023-04-08T17:10:16.020Z,101758.23
2023-04-08T17:12:44.766Z,101760.11
2023-04-08T17:15:13.458Z,101764.27
2023-04-08T17:17:42.155Z,101765.38
2023-04-08T17:20:11.658Z,101769.83
2023-04-08T17:22:39.950Z,101769.80
2023-04-08T17:25:08.942Z,101776.41
2023-04-08T17:27:37.950Z,101782.86
2023-04-08T17:30:08.367Z,101780.30
2023-04-08T17:32:37.847Z,101785.77
2023-04-08T17:35:06.700Z,101789.86
2023-04-08T17:37:35.061Z,101792.77
2023-04-08T17:40:03.662Z,101792.10
2023-04-08T17:42:32.456Z,101794.62
2023-04-08T17:45:02.881Z,101796.30
2023-04-08T17:47:31.537Z,101798.69
2023-04-08T17:49:59.846Z,101797.90
2023-04-08T17:52:28.238Z,101802.94
2023-04-08T17:54:56.819Z,101805.11
2023-04-08T17:57:25.211Z,101812.77
2023-04-08T17:59:53.597Z,101815.18
2023-04-08T18:02:22.552Z,101820.41
2023-04-08T18:04:51.383Z,101826.20
2023-04-08T18:07:19.971Z,101830.61
2023-04-08T18:09:51.018Z,101838.47
2023-04-08T18:12:20.113Z,101842.05
2023-04-08T18:14:48.607Z,101848.96
2023-04-08T18:17:17.090Z,101847.70
2023-04-08T18:19:45.474Z,101851.77
2023-04-08T18:22:16.006Z,101852.81
2023-04-08T18:24:44.597Z,101856.14
2023-04-08T18:27:12.982Z,101854.57
2023-04-08T18:29:41.364Z,101857.64
2023-04-08T18:32:09.952Z,101857.51
2023-04-08T18:34:39.156Z,101858.80
2023-04-08T18:37:07.444Z,101857.90
2023-04-08T18:39:40.207Z,101861.30
2023-04-08T18:42:08.614Z,101864.27
2023-04-08T18:44:37.598Z,101864.92
2023-04-08T18:47:07.412Z,101865.67
2023-04-08T18:49:38.604Z,101869.04
2023-04-08T18:52:08.558Z,101868.46
2023-04-08T18:54:36.981Z,101868.40
2023-04-08T18:57:05.468Z,101866.77
2023-04-08T18:59:34.064Z,101868.38
2023-04-08T19:02:02.535Z,101861.66
2023-04-08T19:04:31.190Z,101860.48
2023-04-08T19:06:59.413Z,101863.38
2023-04-08T19:09:28.104Z,101861.73
2023-04-08T19:11:56.586Z,101858.00
2023-04-08T19:14:26.273Z,101862.08
2023-04-08T19:16:54.899Z,101862.84
2023-04-08T19:19:23.276Z,101859.10
2023-04-08T19:21:51.669Z,101859.77
2023-04-08T19:24:21.170Z,101857.68
2023-04-08T19:26:52.112Z,101862.09
2023-04-08T19:29:23.175Z,101862.45
2023-04-08T19:31:51.543Z,101869.52
2023-04-08T19:34:20.235Z,101867.67
2023-04-08T19:36:48.728Z,101863.84
2023-04-08T19:39:17.314Z,101865.45
2023-04-08T19:41:46.274Z,101863.30
2023-04-08T19:44:14.593Z,101867.23
2023-04-08T19:46:43.509Z,101863.35
2023-04-08T19:49:12.080Z,101859.09
2023-04-08T19:51:40.564Z,101862.30
2023-04-08T19:54:09.061Z,101858.80
2023-04-08T19:56:37.332Z,101854.32
2023-04-08T19:59:06.124Z,101856.73
2023-04-08T20:01:36.430Z,101855.10
2023-04-08T20:04:05.317Z,101854.27
2023-04-08T20:06:34.963Z,101859.48
2023-04-08T20:09:05.840Z,101859.23
2023-04-08T20:11:34.499Z,101862.24
2023-04-08T20:14:04.220Z,101859.55
2023-04-08T20:16:34.412Z,101860.90
2023-04-08T20:19:03.028Z,101858.09
2023-04-08T20:21:31.516Z,101860.28
2023-04-08T20:24:00.414Z,101859.36
2023-04-08T20:26:29.001Z,101860.20
2023-04-08T20:28:59.026Z,101860.66
2023-04-08T20:31:28.193Z,101861.44
2023-04-08T20:33:56.714Z,101862.28
2023-04-08T20:36:25.422Z,101864.67
2023-04-08T20:38:55.187Z,101863.23
2023-04-08T20:41:24.527Z,101859.92
2023-04-08T20:43:54.244Z,101860.08
2023-04-08T20:46:24.799Z,101866.38
2023-04-08T20:48:53.858Z,101862.30
2023-04-08T20:51:22.469Z,101864.40
2023-04-08T20:53:51.167Z,101863.21
2023-04-08T20:56:19.645Z,101867.52
2023-04-08T20:58:47.929Z,101865.05
2023-04-08T21:01:16.663Z,101867.18
2023-04-08T21:03:52.837Z,101868.45
2023-04-08T21:06:22.258Z,101875.52
2023-04-08T21:08:51.588Z,101875.01
2023-04-08T21:11:20.185Z,101874.75
2023-04-08T21:13:49.281Z,101873.80
2023-04-08T21:16:18.025Z,101879.83
2023-04-08T21:18:46.876Z,101877.38
2023-04-08T21:21:15.264Z,101879.06
2023-04-08T21:23:43.851Z,101880.23
2023-04-08T21:26:13.679Z,101880.47
2023-04-08T21:28:42.169Z,101881.93
2023-04-08T21:31:12.087Z,101880.28
2023-04-08T21:33:40.771Z,101883.07
2023-04-08T21:36:09.282Z,101881.08
2023-04-08T21:38:37.634Z,101878.63
2023-04-08T21:41:06.025Z,101880.13
2023-04-08T21:43:34.404Z,101880.48
2023-04-08T21:46:03.818Z,101876.75
2023-04-08T21:48:33.120Z,101879.52
2023-04-08T21:51:01.941Z,101879.27
2023-04-08T21:53:30.913Z,101879.91
2023-04-08T21:55:59.391Z,101884.50
2023-04-08T21:58:28.497Z,101883.61
2023-04-08T22:00:57.102Z,101887.41
2023-04-08T22:03:25.710Z,101888.45
2023-04-08T22:05:54.273Z,101892.60
2023-04-08T22:08:23.366Z,101890.59
2023-04-08T22:10:52.054Z,101892.01
2023-04-08T22:13:21.476Z,101896.09
2023-04-08T22:15:49.888Z,101895.01
2023-04-08T22:18:18.228Z,101897.42
2023-04-08T22:20:47.228Z,101896.52
2023-04-08T22:23:16.257Z,101896.84
2023-04-08T22:25:44.859Z,101896.23
2023-04-08T22:28:13.105Z,101895.67
2023-04-08T22:30:41.625Z,101891.16
2023-04-08T22:33:10.096Z,101891.80
2023-04-08T22:35:40.849Z,101890.84
2023-04-08T22:38:09.300Z,101890.50
2023-04-08T22:40:37.888Z,101893.05
2023-04-08T22:43:07.106Z,101895.57
2023-04-08T22:45:37.363Z,101891.52
2023-04-08T22:48:06.384Z,101888.61
2023-04-08T22:50:35.011Z,101886.92
2023-04-08T22:53:04.019Z,101885.48
2023-04-08T22:55:32.388Z,101885.44
2023-04-08T22:58:06.512Z,101887.13
2023-04-08T23:00:35.301Z,101880.33
2023-04-08T23:03:05.036Z,101886.61
2023-04-08T23:05:34.100Z,101886.83
2023-04-08T23:08:02.608Z,101884.92
2023-04-08T23:10:30.884Z,101885.84
2023-04-08T23:12:59.277Z,101883.08
2023-04-08T23:15:28.160Z,101880.24
2023-04-08T23:17:56.883Z,101883.10
2023-04-08T23:20:32.920Z,101880.39
2023-04-08T23:23:02.747Z,101878.27
2023-04-08T23:25:31.011Z,101878.40
2023-04-08T23:27:59.293Z,101878.75
2023-04-08T23:30:27.781Z,101876.05
2023-04-08T23:32:56.217Z,101868.77
2023-04-08T23:35:24.753Z,101867.38
2023-04-08T23:37:53.142Z,101872.13
2023-04-08T23:40:21.732Z,101874.80
2023-04-08T23:42:52.979Z,101873.77
2023-04-08T23:45:21.589Z,101867.71
2023-04-08T23:47:50.848Z,101869.45
2023-04-08T23:50:23.206Z,101865.55
2023-04-08T23:52:51.636Z,101868.12
2023-04-08T23:55:20.142Z,101863.84
2023-04-08T23:57:50.858Z,101862.77
